Time;durP1;ratioP1;P1;durP2;ratioP2;P2;SDS_P1;SDS_P2;PMS_P1;PMS_P2;Temp;Humidity;BMP_temperature;BMP_pressure;BME280_temperature;BME280_humidity;BME280_pressure;Samples;Min_cycle;Max_cycle;Signal;HPM_P1;HPM_P2
2021/08/24 00:00:33;;;;;;;2.02;1.32;;;;;;;16.01;72.16;99871.33;1750310;81;21783;-56
2021/08/24 00:03:01;;;;;;;1.85;1.75;;;;;;;16.00;72.13;99870.94;1747878;81;21105;-55
2021/08/24 00:05:31;;;;;;;2.85;1.15;;;;;;;15.98;72.14;99872.91;1753277;81;20908;-56
2021/08/24 00:07:57;;;;;;;5.97;1.77;;;;;;;15.96;72.20;99873.02;1751674;81;22019;-55
2021/08/24 00:10:26;;;;;;;2.75;1.90;;;;;;;15.94;72.26;99869.52;1750086;80;21805;-55
2021/08/24 00:12:52;;;;;;;3.87;1.70;;;;;;;15.93;72.30;99875.92;1751175;81;20998;-55
2021/08/24 00:15:19;;;;;;;4.60;1.57;;;;;;;15.92;72.30;99876.89;1755079;81;20982;-55
2021/08/24 00:17:45;;;;;;;4.10;2.17;;;;;;;15.92;72.30;99871.95;1756227;81;21540;-55
2021/08/24 00:20:12;;;;;;;2.62;1.95;;;;;;;15.92;72.34;99874.67;1753409;81;21066;-55
2021/08/24 00:22:39;;;;;;;3.52;2.00;;;;;;;15.91;72.37;99871.08;1753794;81;21078;-56
2021/08/24 00:25:07;;;;;;;5.17;1.70;;;;;;;15.94;72.41;99876.31;1757852;81;21056;-55
2021/08/24 00:27:33;;;;;;;4.15;1.22;;;;;;;15.96;72.50;99868.06;1755894;81;21124;-56
2021/08/24 00:29:59;;;;;;;3.35;1.55;;;;;;;15.98;72.58;99868.36;1755662;81;21055;-55
2021/08/24 00:32:25;;;;;;;2.58;1.70;;;;;;;16.00;72.67;99870.45;1688404;83;21046;-55
2021/08/24 00:34:52;;;;;;;2.50;1.90;;;;;;;16.03;72.79;99870.25;1681581;85;22197;-55
2021/08/24 00:37:19;;;;;;;3.40;1.60;;;;;;;16.05;72.90;99866.95;1717389;82;21035;-55
2021/08/24 00:39:46;;;;;;;2.67;1.50;;;;;;;16.07;72.97;99866.85;1758830;81;21126;-55
2021/08/24 00:42:19;;;;;;;2.67;1.60;;;;;;;16.10;73.08;99867.49;1753879;81;21089;-55
2021/08/24 00:44:47;;;;;;;4.22;1.92;;;;;;;16.12;73.17;99866.03;1751374;81;21357;-55
2021/08/24 00:47:16;;;;;;;3.55;1.27;;;;;;;16.12;73.22;99867.39;1758403;81;21076;-55
2021/08/24 00:49:44;;;;;;;4.62;1.70;;;;;;;16.12;73.27;99862.83;1753301;81;21591;-55
2021/08/24 00:52:14;;;;;;;2.30;1.65;;;;;;;16.14;73.41;99862.73;1759272;81;21409;-55
2021/08/24 00:54:41;;;;;;;2.85;1.82;;;;;;;16.16;73.52;99858.07;1756265;81;21172;-55
2021/08/24 00:57:17;;;;;;;2.80;2.05;;;;;;;16.20;73.74;99863.17;1759422;81;21742;-55
2021/08/24 00:59:44;;;;;;;4.05;1.57;;;;;;;16.23;73.91;99862.09;1752951;79;21073;-55
2021/08/24 01:02:11;;;;;;;7.17;2.75;;;;;;;16.26;73.89;99852.36;1752793;81;21042;-55
2021/08/24 01:04:37;;;;;;;8.58;2.02;;;;;;;16.30;73.93;99857.97;1758469;81;21705;-55
2021/08/24 01:07:27;;;;;;;2.90;2.37;;;;;;;16.33;74.00;99855.05;1722786;81;21133;-55
2021/08/24 01:10:28;;;;;;;2.42;1.70;;;;;;;16.35;73.96;99857.63;1753523;81;21586;-55
2021/08/24 01:13:09;;;;;;;2.52;1.87;;;;;;;16.36;73.96;99852.09;1755657;81;21074;-55
2021/08/24 01:15:57;;;;;;;2.52;1.90;;;;;;;16.38;74.02;99851.99;1753688;81;21093;-55
2021/08/24 01:18:38;;;;;;;2.72;2.52;;;;;;;16.40;74.06;99847.33;1752646;81;21216;-55
2021/08/24 01:21:42;;;;;;;3.70;1.85;;;;;;;16.42;74.09;99840.79;1758556;81;20963;-56
2021/08/24 01:25:53;;;;;;;2.70;2.50;;;;;;;16.51;73.93;99831.11;1793575;78;25876;-55
2021/08/24 01:28:58;;;;;;;3.50;3.15;;;;;;;16.49;73.94;99836.69;1763438;80;21111;-56
2021/08/24 01:31:48;;;;;;;;;;;;;;;16.50;73.92;99831.60;1762977;80;21166;-54
2021/08/24 01:34:23;;;;;;;5.72;3.00;;;;;;;16.49;73.87;99827.17;1731795;80;20202;-55
2021/08/24 01:37:01;;;;;;;5.22;2.95;;;;;;;16.49;73.75;99833.97;1743464;80;21028;-54
2021/08/24 01:39:47;;;;;;;2.83;2.05;;;;;;;16.48;73.59;99825.44;1743311;80;21052;-54
2021/08/24 01:42:20;;;;;;;5.67;2.50;;;;;;;16.48;73.51;99829.51;1743355;80;21261;-55
2021/08/24 01:45:13;;;;;;;3.33;2.40;;;;;;;16.49;73.61;99828.53;1743501;80;21443;-53
2021/08/24 01:48:01;;;;;;;6.50;2.55;;;;;;;16.50;73.70;99820.73;1750180;80;21430;-53
2021/08/24 01:50:44;;;;;;;3.50;2.72;;;;;;;16.53;73.64;99821.02;1746533;80;20967;-54
2021/08/24 01:53:27;;;;;;;2.85;2.65;;;;;;;16.54;73.57;99823.63;1744033;80;21061;-54
2021/08/24 01:55:59;;;;;;;6.58;3.52;;;;;;;16.56;73.63;99815.38;1742373;80;21491;-53
2021/08/24 01:58:47;;;;;;;2.85;2.35;;;;;;;16.58;73.75;99813.42;1746208;80;21621;-53
2021/08/24 02:01:15;;;;;;;3.70;3.08;;;;;;;16.60;73.73;99812.30;1747845;80;21057;-54
2021/08/24 02:03:45;;;;;;;3.50;2.55;;;;;;;16.61;73.76;99810.01;1751956;80;20867;-53
2021/08/24 02:06:17;;;;;;;4.03;2.87;;;;;;;16.64;73.54;99811.16;1715628;82;20947;-52
2021/08/24 02:08:47;;;;;;;4.47;2.83;;;;;;;16.69;72.89;99809.94;1714889;82;20918;-53
2021/08/24 02:11:13;;;;;;;4.25;2.70;;;;;;;16.71;72.57;99803.42;1715199;81;21961;-53
2021/08/24 02:13:44;;;;;;;5.80;2.37;;;;;;;16.77;72.22;99808.40;1713728;82;21563;-53
2021/08/24 02:16:18;;;;;;;3.75;3.02;;;;;;;16.81;72.20;99808.58;1683860;84;20923;-54
2021/08/24 02:18:48;;;;;;;;;;;;;;;16.85;71.93;99805.98;1698155;83;21570;-52
2021/08/24 02:21:23;;;;;;;5.92;3.02;;;;;;;16.88;71.60;99804.91;1695689;83;20136;-54
2021/08/24 02:23:49;;;;;;;3.58;2.67;;;;;;;16.89;71.27;99806.65;1696968;83;21782;-52
2021/08/24 02:26:16;;;;;;;2.92;2.62;;;;;;;16.89;71.10;99803.44;1685571;84;21492;-52
2021/08/24 02:28:49;;;;;;;5.87;3.65;;;;;;;16.90;70.98;99804.31;1685207;84;21868;-52
2021/08/24 02:31:42;;;;;;;5.08;2.87;;;;;;;16.89;70.82;99790.34;1685211;83;21507;-54
2021/08/24 02:34:50;;;;;;;2.75;2.12;;;;;;;16.91;70.44;99799.25;1684171;83;21046;-54
2021/08/24 02:37:40;;;;;;;5.80;1.98;;;;;;;16.92;70.26;99788.27;1687041;84;21137;-52
2021/08/24 02:40:22;;;;;;;5.22;2.37;;;;;;;16.95;70.22;99789.39;1689341;83;20953;-52
2021/08/24 02:43:19;;;;;;;4.62;2.33;;;;;;;16.96;69.72;99797.92;1685890;83;20884;-54
2021/08/24 02:46:09;;;;;;;3.25;2.75;;;;;;;16.98;69.32;99792.38;1681033;84;21319;-52
2021/08/24 02:48:37;;;;;;;4.15;2.47;;;;;;;17.00;69.00;99793.14;1683305;84;21535;-53
2021/08/24 02:51:03;;;;;;;5.03;2.83;;;;;;;17.00;68.45;99791.78;1683924;83;21370;-53
2021/08/24 02:53:32;;;;;;;7.10;2.95;;;;;;;17.01;68.11;99794.89;1656102;84;21506;-53
2021/08/24 02:55:58;;;;;;;5.05;3.15;;;;;;;17.00;68.18;99794.02;1684067;84;20884;-54
2021/08/24 02:58:24;;;;;;;5.45;2.45;;;;;;;17.01;67.94;99793.00;1684795;84;21410;-53
2021/08/24 03:00:51;;;;;;;3.65;2.58;;;;;;;17.00;68.02;99794.50;1680470;83;21125;-54
2021/08/24 03:03:17;;;;;;;4.25;2.55;;;;;;;16.99;67.91;99788.68;1684208;84;22707;-52
2021/08/24 03:05:44;;;;;;;5.35;2.10;;;;;;;16.96;67.74;99786.17;1685184;84;22317;-53
2021/08/24 03:08:12;;;;;;;5.50;2.50;;;;;;;16.94;67.68;99782.20;1685887;84;21456;-53
2021/08/24 03:10:40;;;;;;;4.15;2.72;;;;;;;16.94;68.01;99786.77;1682326;83;21583;-53
2021/08/24 03:13:20;;;;;;;5.80;2.42;;;;;;;16.94;67.98;99775.90;1687425;84;20970;-52
2021/08/24 03:16:08;;;;;;;6.87;3.72;;;;;;;16.92;67.91;99771.09;1683751;84;21102;-55
2021/08/24 03:18:40;;;;;;;7.40;3.58;;;;;;;16.92;67.76;99771.96;1682890;83;21445;-55
2021/08/24 03:21:10;;;;;;;5.75;2.65;;;;;;;16.89;67.60;99772.66;1682276;83;20950;-53
2021/08/24 03:23:37;;;;;;;5.95;3.10;;;;;;;16.88;67.71;99778.59;1657599;84;21670;-54
2021/08/24 03:26:04;;;;;;;3.02;2.72;;;;;;;16.86;67.77;99780.55;1660158;83;21531;-54
2021/08/24 03:28:30;;;;;;;3.80;3.35;;;;;;;16.84;67.90;99778.42;1745993;80;21452;-55
2021/08/24 03:30:56;;;;;;;4.58;3.08;;;;;;;16.83;67.92;99785.36;1743716;80;20985;-54
2021/08/24 03:33:23;;;;;;;6.37;2.95;;;;;;;16.82;68.06;99778.18;1741036;80;22507;-53
2021/08/24 03:35:49;;;;;;;2.65;2.30;;;;;;;16.83;68.25;99788.08;1747059;80;21072;-54
2021/08/24 03:38:16;;;;;;;3.50;2.42;;;;;;;16.85;68.45;99788.81;1744844;80;21057;-54
2021/08/24 03:40:42;;;;;;;3.87;2.95;;;;;;;16.85;68.43;99786.09;1736335;80;22129;-53
2021/08/24 03:43:08;;;;;;;4.70;3.45;;;;;;;16.84;68.44;99789.81;1743756;80;21439;-53
2021/08/24 03:45:35;;;;;;;4.22;3.05;;;;;;;16.85;68.55;99786.09;1745064;80;21061;-55
2021/08/24 03:48:01;;;;;;;3.98;3.05;;;;;;;16.83;68.53;99780.80;1741236;80;21096;-53
2021/08/24 03:50:27;;;;;;;3.35;2.83;;;;;;;16.82;68.62;99781.77;1745004;80;21089;-54
2021/08/24 03:52:54;;;;;;;4.97;3.27;;;;;;;16.83;68.80;99784.88;1741693;80;21427;-55
2021/08/24 03:55:21;;;;;;;3.55;3.25;;;;;;;16.84;68.84;99785.22;1743718;80;21042;-54
2021/08/24 03:57:48;;;;;;;3.90;3.58;;;;;;;16.84;68.91;99792.54;1740550;80;21040;-54
2021/08/24 04:00:16;;;;;;;4.12;3.83;;;;;;;16.84;69.04;99791.17;1743375;80;21088;-53
2021/08/24 04:02:42;;;;;;;5.58;3.02;;;;;;;16.83;69.03;99793.52;1741864;80;21092;-54
2021/08/24 04:05:10;;;;;;;8.78;3.62;;;;;;;16.84;69.11;99796.61;1741847;80;23412;-54
2021/08/24 04:07:37;;;;;;;7.65;2.83;;;;;;;16.86;69.13;99793.27;1741774;80;20980;-54
2021/08/24 04:10:05;;;;;;;2.55;2.35;;;;;;;16.88;69.37;99791.31;1742713;80;20973;-54
2021/08/24 04:12:31;;;;;;;2.98;2.67;;;;;;;16.92;69.60;99790.99;1745029;80;21042;-53
2021/08/24 04:14:57;;;;;;;4.72;3.55;;;;;;;16.96;69.74;99788.41;1743894;80;21145;-53
2021/08/24 04:17:24;;;;;;;8.78;3.37;;;;;;;17.01;69.83;99792.16;1742527;80;22973;-53
2021/08/24 04:19:50;;;;;;;3.72;3.12;;;;;;;17.05;69.98;99794.15;1743012;80;21389;-54
2021/08/24 04:22:19;;;;;;;5.33;3.25;;;;;;;17.07;70.08;99793.06;1746705;80;21700;-55
2021/08/24 04:24:46;;;;;;;7.12;5.50;;;;;;;17.11;70.09;99797.77;1741880;80;20966;-54
2021/08/24 04:27:12;;;;;;;7.33;5.08;;;;;;;17.14;69.83;99790.75;1733341;81;21100;-54
2021/08/24 04:29:39;;;;;;;6.12;4.35;;;;;;;17.19;69.48;99792.62;1710587;81;22703;-53
2021/08/24 04:32:07;;;;;;;7.72;4.53;;;;;;;17.26;69.49;99795.28;1735244;81;21503;-53
2021/08/24 04:34:33;;;;;;;5.83;5.30;;;;;;;17.34;69.34;99798.30;1735268;80;21047;-53
2021/08/24 04:36:59;;;;;;;9.13;5.58;;;;;;;17.42;68.84;99801.80;1734336;80;21073;-53
2021/08/24 04:39:27;;;;;;;8.73;4.70;;;;;;;17.50;68.28;99800.23;1737628;81;21097;-53
2021/08/24 04:41:53;;;;;;;6.05;5.10;;;;;;;17.59;68.05;99799.53;1736637;81;21140;-52
2021/08/24 04:44:21;;;;;;;7.22;5.97;;;;;;;17.68;68.14;99802.08;1723070;80;21132;-52
2021/08/24 04:46:47;;;;;;;8.25;7.33;;;;;;;17.74;67.85;99797.52;1731635;81;21076;-53
2021/08/24 04:49:14;;;;;;;8.55;6.87;;;;;;;17.79;67.97;99799.38;1728391;81;21046;-53
2021/08/24 04:51:40;;;;;;;6.65;5.55;;;;;;;17.87;67.76;99805.09;1729995;81;21494;-54
2021/08/24 04:54:06;;;;;;;5.87;5.22;;;;;;;17.94;67.91;99798.70;1731161;81;21386;-53
2021/08/24 04:56:34;;;;;;;9.50;6.72;;;;;;;18.00;67.61;99801.81;1735731;81;21038;-53
2021/08/24 04:59:00;;;;;;;8.28;5.10;;;;;;;18.07;67.80;99799.47;1726857;81;21129;-54
2021/08/24 05:01:26;;;;;;;7.58;6.83;;;;;;;18.14;67.73;99800.72;1734693;80;21086;-53
2021/08/24 05:03:52;;;;;;;11.20;7.80;;;;;;;18.23;67.49;99801.36;1690568;83;21062;-54
2021/08/24 05:06:19;;;;;;;7.78;6.53;;;;;;;18.31;67.32;99800.25;1736804;81;21765;-54
2021/08/24 05:08:46;;;;;;;9.58;7.60;;;;;;;18.40;67.13;99804.98;1726954;81;21042;-54
2021/08/24 05:11:13;;;;;;;11.57;8.98;;;;;;;18.49;66.84;99802.87;1732607;81;21356;-54
2021/08/24 05:13:39;;;;;;;9.78;8.00;;;;;;;18.57;66.52;99804.15;1737609;81;21029;-54
2021/08/24 05:16:08;;;;;;;10.32;7.08;;;;;;;18.66;66.10;99804.77;1741332;81;21129;-53
2021/08/24 05:18:35;;;;;;;9.35;8.33;;;;;;;18.74;65.74;99797.71;1739335;81;21893;-53
2021/08/24 05:21:06;;;;;;;10.58;7.28;;;;;;;18.82;65.62;99799.31;1737654;81;21484;-53
2021/08/24 05:23:34;;;;;;;9.60;6.70;;;;;;;18.90;65.40;99802.28;1739024;81;21385;-54
2021/08/24 05:26:11;;;;;;;10.10;6.95;;;;;;;18.98;65.08;99800.78;1747101;81;21455;-54
2021/08/24 05:28:39;;;;;;;7.28;5.87;;;;;;;19.06;64.51;99796.44;1740668;80;21357;-53
2021/08/24 05:31:05;;;;;;;10.35;6.65;;;;;;;19.12;64.27;99792.36;1738368;80;21874;-55
2021/08/24 05:33:33;;;;;;;9.30;7.72;;;;;;;19.19;64.05;99794.44;1743093;81;20941;-54
2021/08/24 05:36:00;;;;;;;9.78;6.83;;;;;;;19.24;63.57;99792.19;1739376;81;22151;-54
2021/08/24 05:38:29;;;;;;;12.70;6.30;;;;;;;19.33;63.50;99797.38;1742048;81;20992;-54
2021/08/24 05:40:56;;;;;;;7.92;6.08;;;;;;;19.40;63.54;99793.13;1739610;81;20953;-54
2021/08/24 05:43:23;;;;;;;6.90;6.17;;;;;;;19.48;63.54;99793.91;1738318;81;21110;-54
2021/08/24 05:46:02;;;;;;;8.03;5.90;;;;;;;19.55;62.56;99789.16;1746006;81;21610;-55
2021/08/24 05:48:30;;;;;;;8.05;6.67;;;;;;;19.62;62.15;99790.38;1739928;81;21373;-54
2021/08/24 05:50:56;;;;;;;6.45;5.85;;;;;;;19.68;61.73;99788.11;1740151;81;21137;-54
2021/08/24 05:53:22;;;;;;;8.28;7.25;;;;;;;19.74;61.71;99785.71;1742626;80;21445;-54
2021/08/24 05:55:49;;;;;;;9.03;6.62;;;;;;;19.78;60.98;99783.09;1736272;81;21427;-53
2021/08/24 05:58:15;;;;;;;19.57;6.53;;;;;;;19.81;60.73;99779.25;1702223;82;21454;-55
2021/08/24 06:00:41;;;;;;;7.35;6.37;;;;;;;19.85;60.54;99774.73;1671901;84;21070;-54
2021/08/24 06:03:07;;;;;;;12.50;7.20;;;;;;;19.90;60.19;99777.09;1737235;81;21005;-54
2021/08/24 06:05:39;;;;;;;6.53;5.62;;;;;;;19.97;60.12;99771.45;1743210;81;21081;-54
2021/08/24 06:08:06;;;;;;;11.18;6.33;;;;;;;20.03;59.65;99772.28;1741919;81;21125;-53
2021/08/24 06:10:38;;;;;;;6.25;5.00;;;;;;;20.10;59.59;99768.02;1745135;81;21032;-54
2021/08/24 06:13:06;;;;;;;5.92;4.72;;;;;;;20.17;59.24;99767.84;1744012;81;21097;-54
2021/08/24 06:15:33;;;;;;;5.90;5.15;;;;;;;20.25;58.84;99772.63;1738454;80;21110;-54
2021/08/24 06:17:59;;;;;;;10.25;4.72;;;;;;;20.33;58.64;99771.48;1749310;81;20885;-55
2021/08/24 06:20:26;;;;;;;7.37;3.77;;;;;;;20.39;58.08;99775.06;1743168;80;21073;-54
2021/08/24 06:22:53;;;;;;;9.10;3.80;;;;;;;20.46;57.67;99768.05;1718031;81;21372;-53
2021/08/24 06:25:19;;;;;;;4.03;3.72;;;;;;;20.52;57.67;99770.72;1740541;80;21111;-54
2021/08/24 06:27:46;;;;;;;3.33;3.12;;;;;;;20.60;57.85;99777.24;1738566;80;21077;-54
2021/08/24 06:30:12;;;;;;;4.60;4.12;;;;;;;20.66;57.34;99775.85;1735625;81;21168;-54
2021/08/24 06:32:47;;;;;;;7.28;3.75;;;;;;;20.75;56.90;99781.37;1737948;80;21152;-55
2021/08/24 06:35:14;;;;;;;3.50;2.60;;;;;;;20.83;56.90;99775.70;1735517;81;21089;-54
2021/08/24 06:37:40;;;;;;;4.80;2.75;;;;;;;20.91;56.00;99773.14;1741271;81;20969;-55
2021/08/24 06:40:09;;;;;;;3.75;2.45;;;;;;;21.00;56.14;99769.56;1736865;80;21078;-53
2021/08/24 06:42:47;;;;;;;4.80;3.05;;;;;;;21.07;55.47;99764.77;1715549;81;21417;-56
2021/08/24 06:45:22;;;;;;;4.20;2.98;;;;;;;21.14;55.20;99767.30;1738141;80;21148;-54
2021/08/24 06:47:48;;;;;;;3.72;3.10;;;;;;;21.24;55.41;99771.95;1736553;81;21054;-56
2021/08/24 06:50:16;;;;;;;7.72;3.10;;;;;;;21.33;55.21;99764.27;1735725;81;21050;-55
2021/08/24 06:52:43;;;;;;;4.50;2.52;;;;;;;21.42;54.96;99765.66;1741872;80;21543;-55
2021/08/24 06:55:10;;;;;;;3.17;2.87;;;;;;;21.53;54.58;99760.02;1741067;81;21599;-53
2021/08/24 06:57:37;;;;;;;2.50;1.90;;;;;;;21.65;54.92;99763.50;1731008;81;21536;-54
2021/08/24 07:00:06;;;;;;;3.67;2.15;;;;;;;21.77;54.53;99761.48;1738406;80;21530;-53
2021/08/24 07:02:32;;;;;;;3.55;1.50;;;;;;;21.90;54.62;99760.67;1706745;82;21062;-55
2021/08/24 07:04:58;;;;;;;4.47;1.50;;;;;;;22.03;53.55;99759.05;1737012;81;21120;-53
2021/08/24 07:07:25;;;;;;;3.22;1.40;;;;;;;22.15;53.01;99755.11;1738446;81;21327;-55
2021/08/24 07:09:51;;;;;;;5.03;1.70;;;;;;;22.27;52.30;99749.83;1733907;81;22531;-55
2021/08/24 07:12:18;;;;;;;4.12;1.50;;;;;;;22.36;51.50;99753.05;1739238;80;21694;-55
2021/08/24 07:14:44;;;;;;;4.65;1.87;;;;;;;22.46;51.42;99745.63;1738170;81;21792;-54
2021/08/24 07:17:11;;;;;;;1.60;1.22;;;;;;;22.55;50.94;99746.61;1733969;81;21093;-54
2021/08/24 07:19:37;;;;;;;3.10;1.20;;;;;;;22.64;50.21;99746.58;1740172;81;21417;-54
2021/08/24 07:22:04;;;;;;;3.62;1.27;;;;;;;22.73;49.74;99742.57;1736932;80;22635;-53
2021/08/24 07:24:30;;;;;;;2.67;1.30;;;;;;;22.84;50.04;99746.03;1713163;81;21105;-55
2021/08/24 07:26:57;;;;;;;1.62;1.30;;;;;;;22.94;50.36;99743.23;1729260;80;21110;-55
2021/08/24 07:29:24;;;;;;;1.98;1.20;;;;;;;23.04;50.20;99740.44;1697340;83;21443;-54
2021/08/24 07:31:50;;;;;;;3.35;1.22;;;;;;;23.12;49.55;99737.79;1727669;81;22031;-55
2021/08/24 07:34:17;;;;;;;1.65;1.02;;;;;;;23.20;48.71;99736.00;1728950;81;21235;-55
2021/08/24 07:36:43;;;;;;;2.20;0.90;;;;;;;23.29;47.72;99743.31;1725929;81;21116;-55
2021/08/24 07:39:09;;;;;;;2.00;1.40;;;;;;;23.34;47.37;99748.33;1728635;80;21152;-54
2021/08/24 07:41:36;;;;;;;1.27;1.17;;;;;;;23.39;47.72;99739.96;1727701;81;21093;-54
2021/08/24 07:44:03;;;;;;;1.30;1.05;;;;;;;23.44;46.95;99739.51;1735221;81;21093;-54
2021/08/24 07:46:29;;;;;;;1.00;0.80;;;;;;;23.48;47.16;99743.66;1734133;81;21544;-56
2021/08/24 07:48:56;;;;;;;1.45;0.80;;;;;;;23.51;47.47;99743.39;1727833;80;21084;-54
2021/08/24 07:51:22;;;;;;;0.90;0.70;;;;;;;23.56;45.89;99742.94;1730843;81;21105;-54
2021/08/24 07:53:49;;;;;;;1.45;0.70;;;;;;;23.59;46.02;99741.23;1731503;81;21089;-55
2021/08/24 07:56:15;;;;;;;1.82;0.80;;;;;;;23.64;46.15;99738.38;1733207;81;20962;-55
2021/08/24 07:58:42;;;;;;;1.20;0.80;;;;;;;23.69;46.23;99728.28;1737557;81;21122;-54
2021/08/24 08:01:08;;;;;;;1.57;0.70;;;;;;;23.78;45.90;99730.59;1733965;80;21003;-55
2021/08/24 08:03:34;;;;;;;6.47;0.70;;;;;;;23.86;45.23;99732.89;1732365;81;21326;-55
2021/08/24 08:06:01;;;;;;;0.85;0.75;;;;;;;23.93;44.53;99733.98;1716592;81;21326;-54
2021/08/24 08:08:28;;;;;;;2.45;0.90;;;;;;;24.02;44.38;99731.65;1697338;83;21329;-55
2021/08/24 08:10:56;;;;;;;1.90;0.80;;;;;;;24.09;44.54;99738.23;1732535;81;21108;-55
2021/08/24 08:13:25;;;;;;;1.72;0.80;;;;;;;24.17;43.97;99731.92;1719191;81;20933;-56
2021/08/24 08:15:52;;;;;;;2.58;0.82;;;;;;;24.24;43.64;99732.20;1729992;81;20997;-56
2021/08/24 08:18:18;;;;;;;1.12;0.78;;;;;;;24.31;44.21;99729.14;1733803;80;20884;-55
2021/08/24 08:20:45;;;;;;;3.95;0.90;;;;;;;24.36;43.95;99725.38;1734462;81;20970;-55
2021/08/24 08:23:14;;;;;;;2.05;0.72;;;;;;;24.41;43.47;99718.89;1734144;81;22273;-53
2021/08/24 08:25:41;;;;;;;2.30;0.80;;;;;;;24.46;43.14;99722.88;1732276;81;21374;-53
2021/08/24 08:28:08;;;;;;;7.62;0.90;;;;;;;24.52;43.56;99722.72;1739533;81;21049;-56
2021/08/24 08:30:35;;;;;;;1.57;0.90;;;;;;;24.58;42.72;99719.84;1738743;81;22097;-53
2021/08/24 08:33:03;;;;;;;2.00;0.85;;;;;;;24.63;43.17;99722.95;1740178;81;21026;-55
2021/08/24 08:35:30;;;;;;;2.22;0.70;;;;;;;24.69;42.68;99714.03;1739308;80;21095;-55
2021/08/24 08:37:58;;;;;;;2.08;0.70;;;;;;;24.75;42.06;99708.72;1743178;81;21517;-55
2021/08/24 08:40:51;;;;;;;2.20;0.80;;;;;;;24.83;42.94;99712.05;1737830;81;21055;-56
2021/08/24 08:43:41;;;;;;;0.85;0.68;;;;;;;24.91;41.60;99708.47;1737225;81;21068;-54
2021/08/24 08:46:28;;;;;;;2.40;0.50;;;;;;;24.99;41.44;99711.28;1708219;82;21085;-55
2021/08/24 08:49:21;;;;;;;2.55;0.68;;;;;;;25.07;40.62;99707.17;1738161;81;21523;-54
2021/08/24 08:52:00;;;;;;;4.97;0.60;;;;;;;25.16;40.66;99712.55;1738832;81;22486;-57
2021/08/24 08:54:56;;;;;;;1.60;0.70;;;;;;;25.22;39.53;99707.73;1702498;82;21089;-55
2021/08/24 08:57:41;;;;;;;0.90;0.50;;;;;;;25.23;39.21;99706.70;1744315;81;21116;-57
2021/08/24 09:00:11;;;;;;;;;;;;;;;25.28;39.11;99706.18;1740374;81;21350;-57
2021/08/24 09:02:53;;;;;;;1.80;0.70;;;;;;;25.33;38.57;99706.55;1740504;81;21091;-57
2021/08/24 09:05:23;;;;;;;0.53;0.50;;;;;;;25.37;39.51;99702.41;1738010;80;21443;-55
2021/08/24 09:07:52;;;;;;;0.70;0.50;;;;;;;25.42;40.02;99705.55;1741787;81;20888;-55
2021/08/24 09:10:49;;;;;;;0.80;0.70;;;;;;;25.46;39.17;99705.53;1741094;80;21053;-58
2021/08/24 09:13:37;;;;;;;2.25;0.57;;;;;;;25.47;38.41;99698.99;1741878;80;21070;-54
2021/08/24 09:16:38;;;;;;;8.13;0.90;;;;;;;25.45;38.39;99700.19;1743611;80;21914;-55
2021/08/24 09:19:15;;;;;;;9.20;0.60;;;;;;;25.46;38.49;99695.89;1738697;80;21038;-55
2021/08/24 09:21:44;;;;;;;0.60;0.50;;;;;;;25.49;38.58;99693.31;1743493;80;21046;-54
2021/08/24 09:24:24;;;;;;;0.50;0.40;;;;;;;25.54;37.99;99692.27;1693630;81;20890;-56
2021/08/24 09:27:15;;;;;;;0.60;0.40;;;;;;;25.58;37.58;99684.02;1734736;81;21427;-56
2021/08/24 09:29:44;;;;;;;2.75;0.70;;;;;;;25.64;38.18;99686.12;1729810;81;21144;-55
2021/08/24 09:32:11;;;;;;;0.70;0.57;;;;;;;25.72;37.39;99694.39;1725394;80;21109;-56
2021/08/24 09:34:41;;;;;;;0.95;0.53;;;;;;;25.76;37.93;99687.52;1735862;80;21125;-57
2021/08/24 09:37:08;;;;;;;1.27;0.60;;;;;;;25.79;37.39;99694.55;1732989;81;21046;-55
2021/08/24 09:40:00;;;;;;;0.75;0.50;;;;;;;25.77;37.10;99697.51;1729396;81;21038;-57
2021/08/24 09:42:30;;;;;;;1.00;0.57;;;;;;;25.73;37.12;99681.47;1737401;80;21108;-56
2021/08/24 09:45:00;;;;;;;0.70;0.60;;;;;;;25.71;36.97;99684.39;1730906;81;21070;-57
2021/08/24 09:47:26;;;;;;;2.62;0.70;;;;;;;25.68;36.56;99682.52;1731907;81;21065;-55
2021/08/24 09:50:06;;;;;;;5.03;0.70;;;;;;;25.67;36.86;99683.55;1735232;81;21471;-56
2021/08/24 09:52:33;;;;;;;4.65;0.60;;;;;;;25.67;36.89;99680.79;1677075;84;20933;-55
2021/08/24 09:55:04;;;;;;;0.75;0.60;;;;;;;25.68;37.74;99679.25;1731776;81;21691;-55
2021/08/24 09:57:37;;;;;;;0.50;0.50;;;;;;;25.70;36.83;99674.91;1707743;81;21483;-55
2021/08/24 10:00:09;;;;;;;0.50;0.50;;;;;;;25.74;36.71;99666.14;1713087;81;21029;-57
2021/08/24 10:02:47;;;;;;;3.35;0.50;;;;;;;25.83;36.93;99673.37;1731420;81;21085;-56
2021/08/24 10:05:17;;;;;;;3.90;0.60;;;;;;;25.89;36.78;99660.78;1736064;81;21037;-57
2021/08/24 10:07:45;;;;;;;1.02;0.60;;;;;;;25.97;36.99;99663.52;1730596;80;21078;-55
2021/08/24 10:10:30;;;;;;;2.20;0.60;;;;;;;26.03;36.31;99664.20;1732489;80;21409;-57
2021/08/24 10:12:59;;;;;;;0.72;0.50;;;;;;;26.09;35.86;99656.63;1730119;81;21038;-56
2021/08/24 10:15:36;;;;;;;0.82;0.60;;;;;;;26.14;35.83;99647.29;1732429;81;21719;-56
2021/08/24 10:18:16;;;;;;;2.20;1.25;;;;;;;26.18;35.84;99644.53;1735035;80;21034;-57
2021/08/24 10:20:56;;;;;;;1.35;0.60;;;;;;;26.21;36.30;99642.78;1725782;81;21107;-56
2021/08/24 10:23:27;;;;;;;2.62;0.60;;;;;;;26.24;35.99;99647.96;1729670;81;22298;-57
2021/08/24 10:25:56;;;;;;;1.00;0.60;;;;;;;26.25;36.32;99646.92;1729995;81;21018;-54
2021/08/24 10:28:48;;;;;;;1.15;0.57;;;;;;;26.30;36.63;99651.41;1734474;81;21099;-57
2021/08/24 10:31:33;;;;;;;1.27;0.68;;;;;;;26.33;35.76;99641.42;1729386;81;21432;-56
2021/08/24 10:34:08;;;;;;;0.47;0.45;;;;;;;26.35;35.96;99643.48;1724576;81;22146;-55
2021/08/24 10:36:42;;;;;;;5.90;0.60;;;;;;;26.42;36.06;99637.25;1728145;80;21038;-55
2021/08/24 10:39:28;;;;;;;2.75;0.60;;;;;;;26.45;35.59;99631.38;1726562;81;21061;-57
2021/08/24 10:42:18;;;;;;;1.92;0.53;;;;;;;26.50;36.48;99643.59;1724878;81;21558;-57
2021/08/24 10:45:01;;;;;;;2.67;0.75;;;;;;;26.54;35.67;99635.83;1728626;80;21061;-56
2021/08/24 10:47:50;;;;;;;1.05;0.60;;;;;;;26.57;34.78;99623.03;1731609;81;21394;-56
2021/08/24 10:50:43;;;;;;;1.30;0.80;;;;;;;26.60;34.89;99628.20;1731823;81;21491;-57
2021/08/24 10:53:57;;;;;;;2.15;0.68;;;;;;;26.62;34.77;99624.75;1732483;81;21062;-58
2021/08/24 10:56:57;;;;;;;0.90;0.70;;;;;;;26.63;34.47;99621.78;1735273;81;21805;-56
2021/08/24 10:59:50;;;;;;;0.60;0.50;;;;;;;26.63;34.91;99624.55;1729572;81;21065;-57
2021/08/24 11:02:36;;;;;;;0.78;0.50;;;;;;;26.65;34.53;99611.95;1736048;80;21633;-58
2021/08/24 11:05:17;;;;;;;0.60;0.50;;;;;;;26.67;35.03;99617.64;1700839;81;21730;-56
2021/08/24 11:08:01;;;;;;;0.80;0.53;;;;;;;26.71;34.70;99616.77;1735606;80;21339;-56
2021/08/24 11:10:48;;;;;;;0.62;0.50;;;;;;;26.73;34.83;99611.91;1726986;81;21050;-58
2021/08/24 11:13:26;;;;;;;0.60;0.50;;;;;;;26.78;34.74;99605.34;1639975;84;21050;-56
2021/08/24 11:16:21;;;;;;;7.22;0.60;;;;;;;26.80;34.20;99603.23;1728918;80;22160;-58
2021/08/24 11:18:54;;;;;;;1.47;0.42;;;;;;;26.83;34.40;99607.03;1732532;81;20920;-56
2021/08/24 11:21:41;;;;;;;2.05;0.50;;;;;;;26.88;33.88;99600.98;1734555;80;20990;-57
2021/08/24 11:24:25;;;;;;;2.02;0.45;;;;;;;26.91;33.80;99602.87;1728015;81;21611;-56
2021/08/24 11:27:34;;;;;;;2.47;0.50;;;;;;;26.95;34.01;99600.09;1725739;81;21100;-58
2021/08/24 11:30:23;;;;;;;1.50;0.50;;;;;;;27.00;34.04;99598.15;1729749;80;21048;-58
2021/08/24 11:33:03;;;;;;;0.53;0.50;;;;;;;27.06;32.76;99587.73;1735797;81;20946;-57
2021/08/24 11:35:55;;;;;;;2.00;0.57;;;;;;;27.07;32.96;99593.09;1731456;80;20979;-58
2021/08/24 11:38:27;;;;;;;4.65;0.50;;;;;;;27.08;32.68;99588.42;1734741;80;20954;-56
2021/08/24 11:41:07;;;;;;;1.92;0.50;;;;;;;27.08;32.24;99590.67;1733971;81;21117;-56
2021/08/24 11:43:48;;;;;;;0.53;0.40;;;;;;;27.08;32.17;99587.91;1729741;80;21182;-58
2021/08/24 11:46:41;;;;;;;0.70;0.57;;;;;;;27.05;32.22;99589.64;1694357;83;20978;-56
2021/08/24 11:49:36;;;;;;;2.05;0.60;;;;;;;27.05;32.71;99587.44;1730516;81;20935;-57
2021/08/24 11:52:08;;;;;;;1.07;0.53;;;;;;;26.99;33.17;99579.86;1731626;81;20947;-57
2021/08/24 11:55:04;;;;;;;2.50;0.47;;;;;;;26.94;33.59;99586.46;1729280;81;21062;-56
2021/08/24 11:58:00;;;;;;;0.60;0.50;;;;;;;26.86;33.17;99582.34;1729514;80;21097;-58
2021/08/24 12:00:26;;;;;;;0.60;0.50;;;;;;;26.77;32.75;99588.95;1731991;81;20970;-57
2021/08/24 12:02:53;;;;;;;1.77;0.60;;;;;;;26.67;33.67;99579.52;1730855;81;21106;-56